Duncanville, AL

6:27 AM CST on November 23, 2014 (GMT -0600)
Mallard Creek | Change Station
CLOSE
Current Station
Personal Weather Station
Location: Tuscaloosa, AL
Elevation: 177 ft
Nearby Weather Stations

Elev 177 ft 33.14 °N, 87.56 °W | Updated 1 minute ago

Overcast
Overcast
59.4 °F
Feels Like 59.4 °F
N
1.1
Wind Variable Wind from West

Today
High -- | Low -- °F
--% Chance of Precip.
Yesterday
High -- | Low -- °F
Precip. -- in
6:27 AM 4:44 PM
New Moon, 1% visible
Pressure 29.84 in
Visibility 8.0 miles
Clouds Overcast 1000 ft
Dew Point 57 °F
Humidity 91%
Rainfall 0.00 in
Snow Depth Not available.
UV 0 out of 12
Pollen .30 out of 12
Air Quality Not available.
Flu Activity Not available.
METAR KTCL 231153Z AUTO 10008KT 8SM -RA OVC010 15/13 A2984 RMK AO2 RAB36 SLP104 P0000 60000 T01500133 10161 20144 58026

More Conditions Fewer Conditions

Pressure 29.84 in
Visibility 8.0 miles
Clouds Overcast 1000 ft
Dew Point 57 °F
Humidity 91%
Rainfall 0.00 in
Snow Depth Not available.
UV 0 out of 12
Pollen .30 out of 12
Air Quality Not available.
Flu Activity Not available.
METAR KTCL 231153Z AUTO 10008KT 8SM -RA OVC010 15/13 A2984 RMK AO2 RAB36 SLP104 P0000 60000 T01500133 10161 20144 58026

More Conditions Fewer Conditions

10-Day Weather Forecast

Almanac

Astronomy

Nov. 23, 2014 Rise Set
Actual Time
Civil Twilight
Nautical Twilight
Astronomical Twilight
Moon
Length of Visible Light
Length of Day
Tomorrow will be .
, % of the Moon is Illuminated

Today's Extremes

State Highs State Lows

Community

WunderPhotos

Upload Photos

1,773,050 photos uploaded!

WunderBlogs® & News

Nearby

Air Quality

  Air Quality AQ Index Pollutant
Not available.

Snow Depth

Station Depth Elevation

Earthquake Activity

City Distance Mag. Time & Date
Minimum magnitude displayed is 2.5.

Coastal Water Temperatures

Place Temperature

Nearby Weather Stations